sensor_id;sensor_type;location;lat;lon;timestamp;pressure;altitude;pressure_sealevel;temperature;humidity
6347;BME280;3206;42.666;23.600;2023-01-25T11:39:16;96107.25;;;3.99;100.00
6347;BME280;3206;42.666;23.600;2023-01-25T11:41:54;96100.50;;;4.16;100.00
6347;BME280;3206;42.666;23.600;2023-01-25T11:44:53;96088.06;;;4.55;100.00
6347;BME280;3206;42.666;23.600;2023-01-25T11:47:35;96085.13;;;4.85;100.00
6347;BME280;3206;42.666;23.600;2023-01-25T11:50:10;96082.22;;;5.10;100.00
6347;BME280;3206;42.666;23.600;2023-01-25T11:52:53;96077.34;;;5.22;100.00
6347;BME280;3206;42.666;23.600;2023-01-25T11:55:28;96077.09;;;4.95;100.00
6347;BME280;3206;42.666;23.600;2023-01-25T11:58:10;96076.16;;;4.81;100.00
6347;BME280;3206;42.666;23.600;2023-01-25T12:00:47;96069.63;;;4.74;100.00
6347;BME280;3206;42.666;23.600;2023-01-25T12:03:39;96070.47;;;4.98;100.00
6347;BME280;3206;42.666;23.600;2023-01-25T12:06:14;96062.38;;;4.84;100.00
6347;BME280;3206;42.666;23.600;2023-01-25T12:09:19;96061.91;;;4.77;100.00
6347;BME280;3206;42.666;23.600;2023-01-25T12:12:07;96071.38;;;4.83;100.00
6347;BME280;3206;42.666;23.600;2023-01-25T12:14:49;96057.84;;;4.61;100.00
6347;BME280;3206;42.666;23.600;2023-01-25T12:17:26;96060.09;;;4.44;100.00
6347;BME280;3206;42.666;23.600;2023-01-25T12:22:59;96048.97;;;4.47;100.00
6347;BME280;3206;42.666;23.600;2023-01-25T12:25:43;96045.00;;;4.50;100.00
6347;BME280;3206;42.666;23.600;2023-01-25T12:28:18;96043.50;;;4.67;100.00
6347;BME280;3206;42.666;23.600;2023-01-25T12:30:50;96044.81;;;4.41;100.00
6347;BME280;3206;42.666;23.600;2023-01-25T12:33:22;96040.53;;;4.45;100.00
6347;BME280;3206;42.666;23.600;2023-01-25T12:35:53;96038.25;;;4.62;100.00
6347;BME280;3206;42.666;23.600;2023-01-25T12:38:27;96031.31;;;4.71;100.00
6347;BME280;3206;42.666;23.600;2023-01-25T12:41:00;96038.75;;;4.64;100.00
6347;BME280;3206;42.666;23.600;2023-01-25T12:43:35;96028.41;;;4.68;100.00
6347;BME280;3206;42.666;23.600;2023-01-25T12:46:09;96021.63;;;4.57;100.00
6347;BME280;3206;42.666;23.600;2023-01-25T12:48:43;96027.75;;;4.52;100.00
6347;BME280;3206;42.666;23.600;2023-01-25T12:51:13;96023.53;;;4.51;100.00
6347;BME280;3206;42.666;23.600;2023-01-25T12:53:43;96022.69;;;4.27;100.00
6347;BME280;3206;42.666;23.600;2023-01-25T12:56:24;96028.13;;;4.41;100.00
6347;BME280;3206;42.666;23.600;2023-01-25T12:59:00;96023.22;;;4.29;100.00
6347;BME280;3206;42.666;23.600;2023-01-25T13:01:34;96025.09;;;4.29;100.00
6347;BME280;3206;42.666;23.600;2023-01-25T13:04:17;96018.44;;;4.31;100.00
6347;BME280;3206;42.666;23.600;2023-01-25T13:06:51;96018.44;;;4.31;100.00
6347;BME280;3206;42.666;23.600;2023-01-25T13:09:22;96019.88;;;4.47;100.00
6347;BME280;3206;42.666;23.600;2023-01-25T13:11:53;96019.88;;;4.47;100.00
6347;BME280;3206;42.666;23.600;2023-01-25T13:14:29;96019.88;;;4.47;100.00
6347;BME280;3206;42.666;23.600;2023-01-25T13:17:23;96019.88;;;4.47;100.00
6347;BME280;3206;42.666;23.600;2023-01-25T13:19:55;65057.09;;;-141.88;100.00
6347;BME280;3206;42.666;23.600;2023-01-25T13:25:27;65057.09;;;-141.88;100.00
6347;BME280;3206;42.666;23.600;2023-01-25T13:30:58;65057.09;;;-141.88;100.00
6347;BME280;3206;42.666;23.600;2023-01-25T13:33:33;65057.09;;;-141.88;100.00
6347;BME280;3206;42.666;23.600;2023-01-25T13:38:56;65057.09;;;-141.88;100.00
6347;BME280;3206;42.666;23.600;2023-01-25T13:41:23;65057.09;;;-141.88;100.00
6347;BME280;3206;42.666;23.600;2023-01-25T13:44:07;65057.09;;;-141.88;100.00
6347;BME280;3206;42.666;23.600;2023-01-25T13:46:40;65057.09;;;-141.88;100.00
6347;BME280;3206;42.666;23.600;2023-01-25T13:49:18;65057.09;;;-141.88;100.00
6347;BME280;3206;42.666;23.600;2023-01-25T13:51:47;65057.09;;;-141.88;100.00
6347;BME280;3206;42.666;23.600;2023-01-25T13:54:15;65057.09;;;-141.88;100.00
6347;BME280;3206;42.666;23.600;2023-01-25T13:56:42;65057.09;;;-141.88;100.00
6347;BME280;3206;42.666;23.600;2023-01-25T13:59:23;65057.09;;;-141.88;100.00
6347;BME280;3206;42.666;23.600;2023-01-25T14:01:51;65057.09;;;-141.88;100.00
6347;BME280;3206;42.666;23.600;2023-01-25T14:04:18;65057.09;;;-141.88;100.00
6347;BME280;3206;42.666;23.600;2023-01-25T14:06:45;65057.09;;;-141.88;100.00
6347;BME280;3206;42.666;23.600;2023-01-25T14:09:13;65057.09;;;-141.88;100.00
6347;BME280;3206;42.666;23.600;2023-01-25T14:11:50;65057.09;;;-141.88;100.00
6347;BME280;3206;42.666;23.600;2023-01-25T14:14:24;65057.09;;;-141.88;100.00
6347;BME280;3206;42.666;23.600;2023-01-25T14:17:04;65057.09;;;-141.88;100.00
6347;BME280;3206;42.666;23.600;2023-01-25T14:19:38;65057.09;;;-141.88;100.00
6347;BME280;3206;42.666;23.600;2023-01-25T14:22:16;65057.09;;;-141.88;100.00
6347;BME280;3206;42.666;23.600;2023-01-25T14:24:44;65057.09;;;-141.88;100.00
6347;BME280;3206;42.666;23.600;2023-01-25T14:27:12;65057.09;;;-141.88;100.00
6347;BME280;3206;42.666;23.600;2023-01-25T14:29:40;65057.09;;;-141.88;100.00
6347;BME280;3206;42.666;23.600;2023-01-25T14:32:15;65057.09;;;-141.88;100.00
6347;BME280;3206;42.666;23.600;2023-01-25T14:34:45;65057.09;;;-141.88;100.00
6347;BME280;3206;42.666;23.600;2023-01-25T14:37:15;65057.09;;;-141.88;100.00
6347;BME280;3206;42.666;23.600;2023-01-25T14:39:43;65057.09;;;-141.88;100.00
6347;BME280;3206;42.666;23.600;2023-01-25T14:42:10;65057.09;;;-141.88;100.00
6347;BME280;3206;42.666;23.600;2023-01-25T14:44:37;65057.09;;;-141.88;100.00
6347;BME280;3206;42.666;23.600;2023-01-25T14:47:28;65057.09;;;-141.88;100.00
6347;BME280;3206;42.666;23.600;2023-01-25T14:50:28;65057.09;;;-141.88;100.00
6347;BME280;3206;42.666;23.600;2023-01-25T14:52:56;65057.09;;;-141.88;100.00
6347;BME280;3206;42.666;23.600;2023-01-25T14:55:23;65057.09;;;-141.88;100.00
6347;BME280;3206;42.666;23.600;2023-01-25T14:57:50;65057.09;;;-141.88;100.00
6347;BME280;3206;42.666;23.600;2023-01-25T15:00:20;65057.09;;;-141.88;100.00
6347;BME280;3206;42.666;23.600;2023-01-25T15:02:51;65057.09;;;-141.88;100.00
6347;BME280;3206;42.666;23.600;2023-01-25T15:05:21;65057.09;;;-141.88;100.00
6347;BME280;3206;42.666;23.600;2023-01-25T15:07:50;65057.09;;;-141.88;100.00
6347;BME280;3206;42.666;23.600;2023-01-25T15:10:20;65057.09;;;-141.88;100.00
6347;BME280;3206;42.666;23.600;2023-01-25T15:12:58;65057.09;;;-141.88;100.00
6347;BME280;3206;42.666;23.600;2023-01-25T15:15:27;65057.09;;;-141.88;100.00
6347;BME280;3206;42.666;23.600;2023-01-25T15:17:55;65057.09;;;-141.88;100.00
6347;BME280;3206;42.666;23.600;2023-01-25T15:20:27;65057.09;;;-141.88;100.00
6347;BME280;3206;42.666;23.600;2023-01-25T15:22:55;65057.09;;;-141.88;100.00
6347;BME280;3206;42.666;23.600;2023-01-25T15:25:22;65057.09;;;-141.88;100.00
6347;BME280;3206;42.666;23.600;2023-01-25T15:27:49;96019.88;;;4.47;100.00
6347;BME280;3206;42.666;23.600;2023-01-25T15:30:17;65057.09;;;-141.88;100.00
6347;BME280;3206;42.666;23.600;2023-01-25T15:32:45;65057.09;;;-141.88;100.00
6347;BME280;3206;42.666;23.600;2023-01-25T15:35:15;65057.09;;;-141.88;100.00
6347;BME280;3206;42.666;23.600;2023-01-25T15:37:44;65057.09;;;-141.88;100.00
6347;BME280;3206;42.666;23.600;2023-01-25T15:40:11;65057.09;;;-141.88;100.00
6347;BME280;3206;42.666;23.600;2023-01-25T15:42:38;65057.09;;;-141.88;100.00
6347;BME280;3206;42.666;23.600;2023-01-25T15:45:09;65057.09;;;-141.88;100.00
6347;BME280;3206;42.666;23.600;2023-01-25T15:47:38;65057.09;;;-141.88;100.00
6347;BME280;3206;42.666;23.600;2023-01-25T15:50:08;65057.09;;;-141.88;100.00
6347;BME280;3206;42.666;23.600;2023-01-25T15:52:43;65057.09;;;-141.88;100.00
6347;BME280;3206;42.666;23.600;2023-01-25T15:55:11;65057.09;;;-141.88;100.00
6347;BME280;3206;42.666;23.600;2023-01-25T15:57:38;65057.09;;;-141.88;100.00
6347;BME280;3206;42.666;23.600;2023-01-25T16:00:09;65057.09;;;-141.88;100.00
6347;BME280;3206;42.666;23.600;2023-01-25T16:02:40;65057.09;;;-141.88;100.00
6347;BME280;3206;42.666;23.600;2023-01-25T16:05:07;65057.09;;;-141.88;100.00
6347;BME280;3206;42.666;23.600;2023-01-25T16:07:35;96019.88;;;4.47;100.00
6347;BME280;3206;42.666;23.600;2023-01-25T16:10:05;96019.88;;;4.47;100.00
6347;BME280;3206;42.666;23.600;2023-01-25T16:12:35;65057.09;;;-141.88;100.00
6347;BME280;3206;42.666;23.600;2023-01-25T16:15:02;65057.09;;;-141.88;100.00
6347;BME280;3206;42.666;23.600;2023-01-25T16:17:30;65057.09;;;-141.88;100.00
6347;BME280;3206;42.666;23.600;2023-01-25T16:19:58;65057.09;;;-141.88;100.00
6347;BME280;3206;42.666;23.600;2023-01-25T16:22:24;65057.09;;;-141.88;100.00
6347;BME280;3206;42.666;23.600;2023-01-25T16:24:51;65057.09;;;-141.88;49.72
6347;BME280;3206;42.666;23.600;2023-01-25T16:27:19;65057.09;;;-141.88;100.00
6347;BME280;3206;42.666;23.600;2023-01-25T16:29:50;65057.09;;;-141.88;100.00
6347;BME280;3206;42.666;23.600;2023-01-25T16:32:16;65057.09;;;-141.88;100.00
6347;BME280;3206;42.666;23.600;2023-01-25T16:34:43;65057.09;;;-141.88;100.00
6347;BME280;3206;42.666;23.600;2023-01-25T16:37:13;65057.09;;;-141.88;100.00
6347;BME280;3206;42.666;23.600;2023-01-25T16:39:41;65057.09;;;-141.88;100.00
6347;BME280;3206;42.666;23.600;2023-01-25T16:42:08;65057.09;;;-141.88;100.00
6347;BME280;3206;42.666;23.600;2023-01-25T16:44:36;65057.09;;;-141.88;100.00
6347;BME280;3206;42.666;23.600;2023-01-25T16:47:04;65057.09;;;-141.88;100.00
6347;BME280;3206;42.666;23.600;2023-01-25T16:49:31;65057.09;;;-141.88;100.00
6347;BME280;3206;42.666;23.600;2023-01-25T16:52:00;65057.09;;;-141.88;100.00
6347;BME280;3206;42.666;23.600;2023-01-25T16:54:27;65057.09;;;-141.88;100.00
6347;BME280;3206;42.666;23.600;2023-01-25T16:56:54;65057.09;;;-141.88;100.00
6347;BME280;3206;42.666;23.600;2023-01-25T16:59:22;65057.09;;;-141.88;100.00
6347;BME280;3206;42.666;23.600;2023-01-25T17:01:51;65057.09;;;-141.88;100.00
6347;BME280;3206;42.666;23.600;2023-01-25T17:04:18;65057.09;;;-141.88;100.00
6347;BME280;3206;42.666;23.600;2023-01-25T17:06:46;65057.09;;;-141.88;100.00
6347;BME280;3206;42.666;23.600;2023-01-25T17:09:15;65057.09;;;-141.88;100.00
6347;BME280;3206;42.666;23.600;2023-01-25T17:11:44;65057.09;;;-141.88;100.00
6347;BME280;3206;42.666;23.600;2023-01-25T17:14:13;65057.09;;;-141.88;100.00
6347;BME280;3206;42.666;23.600;2023-01-25T17:16:40;65057.09;;;-141.88;100.00
6347;BME280;3206;42.666;23.600;2023-01-25T17:19:11;65057.09;;;-141.88;100.00
6347;BME280;3206;42.666;23.600;2023-01-25T17:21:38;65057.09;;;-141.88;100.00
6347;BME280;3206;42.666;23.600;2023-01-25T17:24:06;65057.09;;;-141.88;100.00
6347;BME280;3206;42.666;23.600;2023-01-25T17:26:32;65057.09;;;-141.88;100.00
6347;BME280;3206;42.666;23.600;2023-01-25T17:29:00;65057.09;;;-141.88;100.00
6347;BME280;3206;42.666;23.600;2023-01-25T17:31:29;65057.09;;;-141.88;100.00
6347;BME280;3206;42.666;23.600;2023-01-25T17:33:56;65057.09;;;-141.88;100.00
6347;BME280;3206;42.666;23.600;2023-01-25T17:36:24;65057.09;;;-141.88;100.00
6347;BME280;3206;42.666;23.600;2023-01-25T17:38:51;65057.09;;;-141.88;100.00
6347;BME280;3206;42.666;23.600;2023-01-25T17:41:19;65057.09;;;-141.88;100.00
6347;BME280;3206;42.666;23.600;2023-01-25T17:43:49;65057.09;;;-141.88;100.00
6347;BME280;3206;42.666;23.600;2023-01-25T17:46:20;65057.09;;;-141.88;100.00
6347;BME280;3206;42.666;23.600;2023-01-25T17:48:47;65057.09;;;-141.88;100.00
6347;BME280;3206;42.666;23.600;2023-01-25T17:51:14;65057.09;;;-141.88;100.00
6347;BME280;3206;42.666;23.600;2023-01-25T17:53:42;65057.09;;;-141.88;100.00
6347;BME280;3206;42.666;23.600;2023-01-25T17:56:10;65057.09;;;-141.88;100.00
6347;BME280;3206;42.666;23.600;2023-01-25T17:58:37;65057.09;;;-141.88;100.00
6347;BME280;3206;42.666;23.600;2023-01-25T18:01:14;65057.09;;;-141.88;100.00
6347;BME280;3206;42.666;23.600;2023-01-25T18:03:42;65057.09;;;-141.88;100.00
6347;BME280;3206;42.666;23.600;2023-01-25T18:06:10;65057.09;;;-141.88;100.00
6347;BME280;3206;42.666;23.600;2023-01-25T18:08:38;65057.09;;;-141.88;100.00
6347;BME280;3206;42.666;23.600;2023-01-25T18:11:07;65057.09;;;-141.88;100.00
6347;BME280;3206;42.666;23.600;2023-01-25T18:13:38;65057.09;;;-141.88;100.00
6347;BME280;3206;42.666;23.600;2023-01-25T18:16:05;65057.09;;;-141.88;100.00
6347;BME280;3206;42.666;23.600;2023-01-25T18:18:32;65057.09;;;-141.88;100.00
6347;BME280;3206;42.666;23.600;2023-01-25T18:21:04;65057.09;;;-141.88;100.00
6347;BME280;3206;42.666;23.600;2023-01-25T18:23:31;65057.09;;;-141.88;100.00
6347;BME280;3206;42.666;23.600;2023-01-25T18:25:57;65057.09;;;-141.88;100.00
6347;BME280;3206;42.666;23.600;2023-01-25T18:28:26;65057.09;;;-141.88;100.00
6347;BME280;3206;42.666;23.600;2023-01-25T18:30:58;65057.09;;;-141.88;100.00
6347;BME280;3206;42.666;23.600;2023-01-25T18:33:25;65057.09;;;-141.88;100.00
6347;BME280;3206;42.666;23.600;2023-01-25T18:35:53;65057.09;;;-141.88;100.00
6347;BME280;3206;42.666;23.600;2023-01-25T18:38:21;65057.09;;;-141.88;100.00
6347;BME280;3206;42.666;23.600;2023-01-25T18:40:48;65057.09;;;-141.88;100.00
6347;BME280;3206;42.666;23.600;2023-01-25T18:43:15;65057.09;;;-141.88;100.00
6347;BME280;3206;42.666;23.600;2023-01-25T18:45:44;65057.09;;;-141.88;100.00
6347;BME280;3206;42.666;23.600;2023-01-25T18:48:10;65057.09;;;-141.88;100.00
6347;BME280;3206;42.666;23.600;2023-01-25T18:50:41;65057.09;;;-141.88;100.00
6347;BME280;3206;42.666;23.600;2023-01-25T18:53:08;65057.09;;;-141.88;100.00
6347;BME280;3206;42.666;23.600;2023-01-25T18:55:35;65057.09;;;-141.88;100.00
6347;BME280;3206;42.666;23.600;2023-01-25T18:58:02;65057.09;;;-141.88;100.00
6347;BME280;3206;42.666;23.600;2023-01-25T19:00:29;65057.09;;;-141.88;100.00
6347;BME280;3206;42.666;23.600;2023-01-25T19:02:58;65057.09;;;-141.88;100.00
6347;BME280;3206;42.666;23.600;2023-01-25T19:05:25;65057.09;;;-141.88;100.00
6347;BME280;3206;42.666;23.600;2023-01-25T19:07:52;65057.09;;;-141.88;100.00
6347;BME280;3206;42.666;23.600;2023-01-25T19:10:19;65057.09;;;-141.88;100.00
6347;BME280;3206;42.666;23.600;2023-01-25T19:12:46;65057.09;;;-141.88;100.00
6347;BME280;3206;42.666;23.600;2023-01-25T19:15:12;65057.09;;;-141.88;100.00
6347;BME280;3206;42.666;23.600;2023-01-25T19:17:39;65057.09;;;-141.88;100.00
6347;BME280;3206;42.666;23.600;2023-01-25T19:20:09;65057.09;;;-141.88;100.00
6347;BME280;3206;42.666;23.600;2023-01-25T19:22:35;65057.09;;;-141.88;100.00
6347;BME280;3206;42.666;23.600;2023-01-25T19:25:05;65057.09;;;-141.88;100.00
6347;BME280;3206;42.666;23.600;2023-01-25T19:27:32;65057.09;;;-141.88;100.00
6347;BME280;3206;42.666;23.600;2023-01-25T19:29:58;65057.09;;;-141.88;100.00
6347;BME280;3206;42.666;23.600;2023-01-25T19:32:25;65057.09;;;-141.88;100.00
6347;BME280;3206;42.666;23.600;2023-01-25T19:34:52;65057.09;;;-141.88;100.00
6347;BME280;3206;42.666;23.600;2023-01-25T19:37:20;65057.09;;;-141.88;100.00
6347;BME280;3206;42.666;23.600;2023-01-25T19:39:47;65057.09;;;-141.88;100.00
6347;BME280;3206;42.666;23.600;2023-01-25T19:42:13;65057.09;;;-141.88;100.00
6347;BME280;3206;42.666;23.600;2023-01-25T19:44:40;65057.09;;;-141.88;100.00
6347;BME280;3206;42.666;23.600;2023-01-25T19:47:07;65057.09;;;-141.88;100.00
6347;BME280;3206;42.666;23.600;2023-01-25T19:49:34;65057.09;;;-141.88;100.00
6347;BME280;3206;42.666;23.600;2023-01-25T19:52:00;65057.09;;;-141.88;100.00
6347;BME280;3206;42.666;23.600;2023-01-25T19:54:29;65057.09;;;-141.88;100.00
6347;BME280;3206;42.666;23.600;2023-01-25T19:56:55;65057.09;;;-141.88;100.00
6347;BME280;3206;42.666;23.600;2023-01-25T19:59:22;65057.09;;;-141.88;100.00
6347;BME280;3206;42.666;23.600;2023-01-25T20:01:52;65057.09;;;-141.88;100.00
6347;BME280;3206;42.666;23.600;2023-01-25T20:04:21;65057.09;;;-141.88;100.00
6347;BME280;3206;42.666;23.600;2023-01-25T20:06:48;65057.09;;;-141.88;100.00
6347;BME280;3206;42.666;23.600;2023-01-25T20:09:16;65057.09;;;-141.88;100.00
6347;BME280;3206;42.666;23.600;2023-01-25T20:11:47;65057.09;;;-141.88;100.00
6347;BME280;3206;42.666;23.600;2023-01-25T20:14:14;65057.09;;;-141.88;100.00
6347;BME280;3206;42.666;23.600;2023-01-25T20:16:41;65057.09;;;-141.88;100.00
6347;BME280;3206;42.666;23.600;2023-01-25T20:19:09;65057.09;;;-141.88;100.00
6347;BME280;3206;42.666;23.600;2023-01-25T20:21:37;65057.09;;;-141.88;100.00
6347;BME280;3206;42.666;23.600;2023-01-25T20:24:05;65057.09;;;-141.88;100.00
6347;BME280;3206;42.666;23.600;2023-01-25T20:26:35;65057.09;;;-141.88;100.00
6347;BME280;3206;42.666;23.600;2023-01-25T20:29:05;65057.09;;;-141.88;100.00
6347;BME280;3206;42.666;23.600;2023-01-25T20:31:34;65057.09;;;-141.88;100.00
6347;BME280;3206;42.666;23.600;2023-01-25T20:34:03;65057.09;;;-141.88;100.00
6347;BME280;3206;42.666;23.600;2023-01-25T20:36:30;65057.09;;;-141.88;100.00
6347;BME280;3206;42.666;23.600;2023-01-25T20:38:57;65057.09;;;-141.88;100.00
6347;BME280;3206;42.666;23.600;2023-01-25T20:41:24;65057.09;;;-141.88;100.00
6347;BME280;3206;42.666;23.600;2023-01-25T20:43:52;65057.09;;;-141.88;100.00
6347;BME280;3206;42.666;23.600;2023-01-25T20:46:23;65057.09;;;-141.88;100.00
6347;BME280;3206;42.666;23.600;2023-01-25T20:48:51;65057.09;;;-141.88;100.00
6347;BME280;3206;42.666;23.600;2023-01-25T20:51:19;65057.09;;;-141.88;100.00
6347;BME280;3206;42.666;23.600;2023-01-25T20:53:47;65057.09;;;-141.88;100.00
6347;BME280;3206;42.666;23.600;2023-01-25T20:56:15;65057.09;;;-141.88;100.00
6347;BME280;3206;42.666;23.600;2023-01-25T20:58:42;65057.09;;;-141.88;100.00
6347;BME280;3206;42.666;23.600;2023-01-25T21:01:15;65057.09;;;-141.88;100.00
6347;BME280;3206;42.666;23.600;2023-01-25T21:03:44;65057.09;;;-141.88;100.00
6347;BME280;3206;42.666;23.600;2023-01-25T21:06:11;65057.09;;;-141.88;100.00
6347;BME280;3206;42.666;23.600;2023-01-25T21:08:38;65057.09;;;-141.88;100.00
6347;BME280;3206;42.666;23.600;2023-01-25T21:11:06;65057.09;;;-141.88;100.00
6347;BME280;3206;42.666;23.600;2023-01-25T21:13:33;65057.09;;;-141.88;100.00
6347;BME280;3206;42.666;23.600;2023-01-25T21:16:02;65057.09;;;-141.88;100.00
6347;BME280;3206;42.666;23.600;2023-01-25T21:18:30;65057.09;;;-141.88;100.00
6347;BME280;3206;42.666;23.600;2023-01-25T21:21:04;65057.09;;;-141.88;100.00
6347;BME280;3206;42.666;23.600;2023-01-25T21:23:31;65057.09;;;-141.88;100.00
6347;BME280;3206;42.666;23.600;2023-01-25T21:25:59;65057.09;;;-141.88;100.00
6347;BME280;3206;42.666;23.600;2023-01-25T21:28:26;65057.09;;;-141.88;100.00
6347;BME280;3206;42.666;23.600;2023-01-25T21:30:53;65057.09;;;-141.88;100.00
6347;BME280;3206;42.666;23.600;2023-01-25T21:33:20;65057.09;;;-141.88;100.00
6347;BME280;3206;42.666;23.600;2023-01-25T21:35:47;65057.09;;;-141.88;100.00
6347;BME280;3206;42.666;23.600;2023-01-25T21:38:16;65057.09;;;-141.88;100.00
6347;BME280;3206;42.666;23.600;2023-01-25T21:40:43;65057.09;;;-141.88;100.00
6347;BME280;3206;42.666;23.600;2023-01-25T21:43:10;65057.09;;;-141.88;100.00
6347;BME280;3206;42.666;23.600;2023-01-25T21:45:37;65057.09;;;-141.88;100.00
6347;BME280;3206;42.666;23.600;2023-01-25T21:48:22;65057.09;;;-141.88;100.00
6347;BME280;3206;42.666;23.600;2023-01-25T21:51:03;65057.09;;;-141.88;100.00
6347;BME280;3206;42.666;23.600;2023-01-25T21:53:48;65057.09;;;-141.88;100.00
6347;BME280;3206;42.666;23.600;2023-01-25T21:56:15;65057.09;;;-141.88;100.00
6347;BME280;3206;42.666;23.600;2023-01-25T21:58:41;65057.09;;;-141.88;100.00
6347;BME280;3206;42.666;23.600;2023-01-25T22:01:08;65057.09;;;-141.88;100.00
6347;BME280;3206;42.666;23.600;2023-01-25T22:03:35;65057.09;;;-141.88;100.00
6347;BME280;3206;42.666;23.600;2023-01-25T22:06:02;65057.09;;;-141.88;100.00
6347;BME280;3206;42.666;23.600;2023-01-25T22:08:29;65057.09;;;-141.88;100.00
6347;BME280;3206;42.666;23.600;2023-01-25T22:11:01;65057.09;;;-141.88;100.00
6347;BME280;3206;42.666;23.600;2023-01-25T22:13:28;65057.09;;;-141.88;100.00
6347;BME280;3206;42.666;23.600;2023-01-25T22:15:57;65057.09;;;-141.88;100.00
6347;BME280;3206;42.666;23.600;2023-01-25T22:18:25;65057.09;;;-141.88;100.00
6347;BME280;3206;42.666;23.600;2023-01-25T22:20:56;65057.09;;;-141.88;100.00
6347;BME280;3206;42.666;23.600;2023-01-25T22:23:23;65057.09;;;-141.88;100.00
6347;BME280;3206;42.666;23.600;2023-01-25T22:26:00;65057.09;;;-141.88;100.00
6347;BME280;3206;42.666;23.600;2023-01-25T22:28:31;65057.09;;;-141.88;100.00
6347;BME280;3206;42.666;23.600;2023-01-25T22:30:58;65057.09;;;-141.88;100.00
6347;BME280;3206;42.666;23.600;2023-01-25T22:33:25;65057.09;;;-141.88;100.00
6347;BME280;3206;42.666;23.600;2023-01-25T22:35:52;65057.09;;;-141.88;100.00
6347;BME280;3206;42.666;23.600;2023-01-25T22:38:19;65057.09;;;-141.88;100.00
6347;BME280;3206;42.666;23.600;2023-01-25T22:40:45;65057.09;;;-141.88;100.00
6347;BME280;3206;42.666;23.600;2023-01-25T22:43:13;65057.09;;;-141.88;100.00
6347;BME280;3206;42.666;23.600;2023-01-25T22:45:48;65057.09;;;-141.88;100.00
6347;BME280;3206;42.666;23.600;2023-01-25T22:48:15;65057.09;;;-141.88;100.00
6347;BME280;3206;42.666;23.600;2023-01-25T22:50:42;65057.09;;;-141.88;100.00
6347;BME280;3206;42.666;23.600;2023-01-25T22:53:09;65057.09;;;-141.88;100.00
6347;BME280;3206;42.666;23.600;2023-01-25T22:55:36;65057.09;;;-141.88;100.00
6347;BME280;3206;42.666;23.600;2023-01-25T22:58:03;65057.09;;;-141.88;100.00
6347;BME280;3206;42.666;23.600;2023-01-25T23:00:31;65057.09;;;-141.88;100.00
6347;BME280;3206;42.666;23.600;2023-01-25T23:02:58;65057.09;;;-141.88;100.00
6347;BME280;3206;42.666;23.600;2023-01-25T23:05:24;65057.09;;;-141.88;100.00
6347;BME280;3206;42.666;23.600;2023-01-25T23:07:52;65057.09;;;-141.88;100.00
6347;BME280;3206;42.666;23.600;2023-01-25T23:10:19;65057.09;;;-141.88;100.00
6347;BME280;3206;42.666;23.600;2023-01-25T23:12:45;65057.09;;;-141.88;100.00
6347;BME280;3206;42.666;23.600;2023-01-25T23:15:12;65057.09;;;-141.88;100.00
6347;BME280;3206;42.666;23.600;2023-01-25T23:17:42;65057.09;;;-141.88;100.00
6347;BME280;3206;42.666;23.600;2023-01-25T23:20:27;65057.09;;;-141.88;100.00
6347;BME280;3206;42.666;23.600;2023-01-25T23:22:55;65057.09;;;-141.88;100.00
6347;BME280;3206;42.666;23.600;2023-01-25T23:25:22;65057.09;;;-141.88;100.00
6347;BME280;3206;42.666;23.600;2023-01-25T23:27:48;65057.09;;;-141.88;100.00
6347;BME280;3206;42.666;23.600;2023-01-25T23:30:16;65057.09;;;-141.88;100.00
6347;BME280;3206;42.666;23.600;2023-01-25T23:32:44;65057.09;;;-141.88;100.00
6347;BME280;3206;42.666;23.600;2023-01-25T23:35:15;65057.09;;;-141.88;100.00
6347;BME280;3206;42.666;23.600;2023-01-25T23:37:42;65057.09;;;-141.88;100.00
6347;BME280;3206;42.666;23.600;2023-01-25T23:40:10;65057.09;;;-141.88;100.00
6347;BME280;3206;42.666;23.600;2023-01-25T23:42:37;65057.09;;;-141.88;100.00
6347;BME280;3206;42.666;23.600;2023-01-25T23:45:07;65057.09;;;-141.88;100.00
6347;BME280;3206;42.666;23.600;2023-01-25T23:47:33;65057.09;;;-141.88;100.00
6347;BME280;3206;42.666;23.600;2023-01-25T23:50:02;65057.09;;;-141.88;100.00
6347;BME280;3206;42.666;23.600;2023-01-25T23:52:29;65057.09;;;-141.88;100.00
6347;BME280;3206;42.666;23.600;2023-01-25T23:54:56;65057.09;;;-141.88;100.00
6347;BME280;3206;42.666;23.600;2023-01-25T23:57:23;65057.09;;;-141.88;100.00
6347;BME280;3206;42.666;23.600;2023-01-25T23:59:49;65057.09;;;-141.88;100.00
